Etusivu
METAR-TAF:

METAR-TAF

Lentoasemat :

Fergus Falls Municipal Airport (Einar Mickelson Field)

Fergus Falls, Minnesota, Yhdysvallat

Leveyspiiri: 46-17N, Pituuspiiri: 096-09W, korkeus merenpinnasta: 616 m

Tämänhetkinen sää

Tämä raportti tehtiin 32 minuuttia sitten, kello 04.02 UTC
tyyntä
Lämpötila 10°C
Kosteus 62%
Ilmanpaine 1020 hPa
Näkyvyys: 16.1 km
selkeää

METAR: KFFM 230402Z AUTO 00000KT 10SM CLR 10/03 A3011 RMK AO2

Aika: 23:34 (04:34 UTC)


TAF: puuttuu

Säähavainnot ja -ennusteet yli 4000 lentoasemalta (METAR- ja TAF-raportit).

Käytössä olevat sääasemat on merkitty karttaan keltaisilla ja punaisilla pisteillä.

Aseta hiiri pisteen päälle nähdäksesi sääaseman nimen.

Klikkaa sitten nähdäksesi säähavainnot ja -ennusteet.

Kartan vaihtaminen: klikkaa mustalla rastilla varustettuja vihreitä pisteitä, niin voit zoomata sisään; viivalla varustettua vihreää pistettä, niin voit zoomata ulos tai vihreitä nuolia, niin pääset viereisille kartoille.


METAR-TAF: